Terminal Aerodrome Forecast
Issued by NWS Wilmington, OH

Current Version | Previous Version | Graphics & Text | Print | Product List | Glossary On
Versions: 1 2 3 4 5 6 7 8 9 10 11 12 13 14 15 16 17 18 19 20
000
FTUS41 KILN 161700
TAFILN
TAF
KILN 161731Z 1618/1718 25014G24KT 5SM -SHRA BR SCT006 OVC012
     FM162100 25014G24KT P6SM OVC006
     FM170000 27014G24KT P6SM OVC006
     FM170700 28012G20KT P6SM OVC013=

USA.gov is the U.S. government's official web portal to all federal, state and local government web resources and services.